Time;durP1;ratioP1;P1;durP2;ratioP2;P2;SDS_P1;SDS_P2;PMS_P1;PMS_P2;Temp;Humidity;BMP_temperature;BMP_pressure;BME280_temperature;BME280_humidity;BME280_pressure;Samples;Min_cycle;Max_cycle;Signal;HPM_P1;HPM_P2
2023/06/15 00:01:14;;;;;;;14.93;5.85;;;19.50;99.90;;;;;;4941847;29;20028;-77
2023/06/15 00:03:42;;;;;;;10.13;6.15;;;19.50;99.90;;;;;;4938280;29;20024;-78
2023/06/15 00:06:08;;;;;;;12.13;5.45;;;19.40;99.90;;;;;;4937845;28;20119;-78
2023/06/15 00:08:34;;;;;;;9.32;4.72;;;19.40;99.90;;;;;;4934464;29;20596;-78
2023/06/15 00:11:00;;;;;;;11.52;5.95;;;19.30;99.90;;;;;;4934352;29;20028;-78
2023/06/15 00:13:26;;;;;;;12.75;5.93;;;19.20;99.90;;;;;;4937876;28;20159;-78
2023/06/15 00:15:52;;;;;;;9.82;5.03;;;19.20;99.90;;;;;;4934401;29;20028;-77
2023/06/15 00:18:19;;;;;;;12.27;5.53;;;19.10;99.90;;;;;;4934531;29;20043;-77
2023/06/15 00:20:45;;;;;;;13.32;4.88;;;19.00;99.90;;;;;;4933782;29;20018;-78
2023/06/15 00:23:11;;;;;;;11.23;5.85;;;19.10;99.90;;;;;;4934127;29;20028;-78
2023/06/15 00:25:37;;;;;;;10.98;5.25;;;19.10;99.90;;;;;;4934141;29;20502;-78
2023/06/15 00:28:03;;;;;;;9.95;4.65;;;19.10;99.90;;;;;;4934546;29;20019;-78
2023/06/15 00:30:29;;;;;;;8.73;5.45;;;19.10;99.90;;;;;;4933377;29;20144;-78
2023/06/15 00:32:56;;;;;;;8.75;5.32;;;19.20;99.90;;;;;;4938287;29;20032;-78
2023/06/15 00:35:22;;;;;;;9.13;4.55;;;19.20;99.90;;;;;;4934125;29;20047;-78
2023/06/15 00:37:48;;;;;;;8.93;4.63;;;19.20;99.90;;;;;;4932962;29;20161;-78
2023/06/15 00:40:14;;;;;;;10.15;5.88;;;19.10;99.90;;;;;;4932375;29;20039;-78
2023/06/15 00:42:41;;;;;;;11.27;5.57;;;19.10;99.90;;;;;;4917646;29;20043;-78
2023/06/15 00:45:07;;;;;;;9.55;5.03;;;19.20;99.90;;;;;;4936569;29;20023;-78
2023/06/15 00:47:38;;;;;;;8.07;4.65;;;19.10;99.90;;;;;;4946069;29;20047;-77
2023/06/15 00:50:11;;;;;;;9.40;4.37;;;19.10;99.90;;;;;;4934638;29;20506;-78
2023/06/15 00:52:37;;;;;;;9.38;5.03;;;19.10;99.90;;;;;;4920860;29;20675;-78
2023/06/15 00:55:04;;;;;;;10.93;5.38;;;19.10;99.90;;;;;;4934040;29;20032;-78
2023/06/15 00:57:32;;;;;;;10.80;4.80;;;19.10;99.90;;;;;;4933578;29;20398;-77
2023/06/15 00:59:59;;;;;;;7.65;4.72;;;19.10;99.90;;;;;;4933781;29;20510;-78
2023/06/15 01:02:26;;;;;;;8.18;5.05;;;19.10;99.90;;;;;;4937830;29;20083;-78
2023/06/15 01:04:55;;;;;;;8.75;4.63;;;19.00;99.90;;;;;;4937588;29;20027;-78
2023/06/15 01:07:27;;;;;;;11.93;5.90;;;19.00;99.90;;;;;;4933498;29;20030;-78
2023/06/15 01:09:57;;;;;;;8.88;4.78;;;18.90;99.90;;;;;;4948651;28;20038;-77
2023/06/15 01:12:24;;;;;;;9.02;5.38;;;18.80;99.90;;;;;;4933781;29;20062;-77
2023/06/15 01:14:50;;;;;;;8.93;4.82;;;18.70;99.90;;;;;;4932803;29;20048;-78
2023/06/15 01:17:23;;;;;;;8.68;4.78;;;18.70;99.90;;;;;;4953718;28;20490;-78
2023/06/15 01:19:54;;;;;;;7.95;4.63;;;18.70;99.90;;;;;;4952999;28;20039;-78
2023/06/15 01:22:24;;;;;;;9.57;5.35;;;18.70;99.90;;;;;;4952430;28;20047;-78
2023/06/15 01:25:03;;;;;;;9.27;5.45;;;18.50;99.90;;;;;;4953991;29;20039;-78
2023/06/15 01:27:29;;;;;;;12.93;5.25;;;18.50;99.90;;;;;;4952646;28;20065;-78
2023/06/15 01:29:57;;;;;;;8.45;4.78;;;18.60;99.90;;;;;;4953992;28;20102;-79
2023/06/15 01:32:23;;;;;;;12.52;5.80;;;18.60;99.90;;;;;;4954095;28;20880;-79
2023/06/15 01:34:49;;;;;;;8.93;4.22;;;18.70;99.90;;;;;;4953779;28;20110;-78
2023/06/15 01:37:15;;;;;;;10.98;5.05;;;18.70;99.90;;;;;;4936478;28;20115;-78
2023/06/15 01:39:42;;;;;;;13.60;5.95;;;18.70;99.90;;;;;;4953819;28;20107;-78
2023/06/15 01:42:10;;;;;;;11.05;5.20;;;18.70;99.90;;;;;;4961149;28;20098;-78
2023/06/15 01:44:38;;;;;;;10.32;5.10;;;18.70;99.90;;;;;;4959694;28;20482;-79
2023/06/15 01:47:04;;;;;;;9.48;5.07;;;18.70;99.90;;;;;;4936508;28;20491;-78
2023/06/15 01:49:30;;;;;;;8.43;5.07;;;18.60;99.90;;;;;;4936371;29;20050;-78
2023/06/15 01:51:56;;;;;;;8.52;5.38;;;18.70;99.90;;;;;;4953631;28;20879;-78
2023/06/15 01:54:22;;;;;;;10.20;5.53;;;18.60;99.90;;;;;;4936539;29;20035;-79
2023/06/15 01:56:48;;;;;;;12.77;5.55;;;18.60;99.90;;;;;;4953463;28;20472;-78
2023/06/15 01:59:14;;;;;;;13.13;6.00;;;18.60;99.90;;;;;;4936039;29;20035;-78
2023/06/15 02:01:40;;;;;;;10.18;4.97;;;18.70;99.90;;;;;;4936182;29;20031;-78
2023/06/15 02:04:05;;;;;;;9.60;5.38;;;18.70;99.90;;;;;;4931298;29;20023;-79
2023/06/15 02:06:31;;;;;;;10.50;5.53;;;18.80;99.90;;;;;;4953279;28;20111;-78
2023/06/15 02:08:57;;;;;;;9.70;5.65;;;18.80;99.90;;;;;;4936345;29;20051;-78
2023/06/15 02:11:23;;;;;;;16.77;5.82;;;18.80;99.90;;;;;;4951204;28;20046;-78
2023/06/15 02:13:49;;;;;;;6.80;4.97;;;18.70;99.90;;;;;;4944143;29;20398;-78
2023/06/15 02:16:15;;;;;;;15.65;6.03;;;18.70;99.90;;;;;;4953186;28;20028;-78
2023/06/15 02:18:44;;;;;;;8.88;5.03;;;18.60;99.90;;;;;;4952901;29;20031;-79
2023/06/15 02:21:10;;;;;;;10.82;5.20;;;18.60;99.90;;;;;;4952477;28;20042;-79
2023/06/15 02:23:36;;;;;;;10.15;4.88;;;18.60;99.90;;;;;;4953347;28;20092;-79
2023/06/15 02:26:03;;;;;;;9.95;5.72;;;18.60;99.90;;;;;;4955039;28;20035;-79
2023/06/15 02:28:30;;;;;;;11.70;5.15;;;18.70;99.90;;;;;;4938804;29;20114;-79
2023/06/15 02:30:56;;;;;;;10.75;5.10;;;18.60;99.90;;;;;;4936261;28;20122;-79
2023/06/15 02:33:22;;;;;;;9.80;5.35;;;18.50;99.90;;;;;;4937071;29;20031;-79
2023/06/15 02:35:48;;;;;;;8.13;5.03;;;18.60;99.90;;;;;;4923410;29;20054;-78
2023/06/15 02:38:15;;;;;;;9.27;5.32;;;18.60;99.90;;;;;;4956517;28;20016;-79
2023/06/15 02:40:41;;;;;;;7.55;4.85;;;18.50;99.90;;;;;;4939884;29;20067;-79
2023/06/15 02:43:07;;;;;;;13.25;5.68;;;18.50;99.90;;;;;;4939519;29;20509;-79
2023/06/15 02:45:36;;;;;;;7.40;4.78;;;18.40;99.90;;;;;;4946156;29;20129;-78
2023/06/15 02:48:03;;;;;;;8.98;4.32;;;18.50;99.90;;;;;;4953178;28;20105;-78
2023/06/15 02:50:29;;;;;;;10.40;6.20;;;18.50;99.90;;;;;;4955650;28;20487;-78
2023/06/15 02:53:05;;;;;;;9.50;5.18;;;18.40;99.90;;;;;;4955472;28;20051;-78
2023/06/15 02:55:33;;;;;;;12.48;6.80;;;18.30;99.90;;;;;;4937106;29;20031;-78
2023/06/15 02:57:58;;;;;;;12.93;6.90;;;18.30;99.90;;;;;;4937343;29;20113;-78
2023/06/15 03:00:53;;;;;;;13.45;5.70;;;18.20;99.90;;;;;;4916478;29;20044;-79
2023/06/15 03:03:29;;;;;;;13.82;7.10;;;18.20;99.90;;;;;;4900334;29;20477;-79
2023/06/15 03:05:58;;;;;;;11.15;6.13;;;18.20;99.90;;;;;;4900005;29;20044;-79
2023/06/15 03:08:31;;;;;;;14.20;5.97;;;18.10;99.90;;;;;;4900328;29;20393;-78
2023/06/15 03:11:07;;;;;;;11.65;5.78;;;18.20;99.90;;;;;;4900011;29;20060;-79
2023/06/15 03:13:33;;;;;;;14.35;6.88;;;18.20;99.90;;;;;;4916334;29;20204;-78
2023/06/15 03:16:06;;;;;;;9.27;5.47;;;18.20;99.90;;;;;;4892756;29;20179;-78
2023/06/15 03:18:33;;;;;;;13.25;6.45;;;18.20;99.90;;;;;;4895054;29;20060;-78
2023/06/15 03:20:59;;;;;;;9.27;4.68;;;18.30;99.90;;;;;;4878845;29;20033;-77
2023/06/15 03:23:25;;;;;;;9.02;4.40;;;18.30;99.90;;;;;;4909698;29;20063;-78
2023/06/15 03:25:52;;;;;;;9.40;5.63;;;18.30;99.90;;;;;;4900059;29;20480;-78
2023/06/15 03:28:23;;;;;;;8.27;5.18;;;18.30;99.90;;;;;;4889461;29;20688;-79
2023/06/15 03:30:53;;;;;;;12.05;4.93;;;18.30;99.90;;;;;;4883278;29;20032;-80
2023/06/15 03:33:21;;;;;;;13.35;4.30;;;18.30;99.90;;;;;;4896001;29;20028;-79
2023/06/15 03:35:49;;;;;;;6.88;4.15;;;18.30;99.90;;;;;;4882201;29;20020;-78
2023/06/15 03:38:16;;;;;;;8.32;4.57;;;18.30;99.90;;;;;;4944339;28;20043;-78
2023/06/15 03:40:42;;;;;;;10.15;4.97;;;18.40;99.90;;;;;;4938130;29;20524;-78
2023/06/15 03:43:10;;;;;;;8.48;4.25;;;18.40;99.90;;;;;;4954740;28;20086;-78
2023/06/15 03:45:39;;;;;;;7.95;4.32;;;18.50;99.90;;;;;;4953865;28;20031;-79
2023/06/15 03:48:06;;;;;;;10.57;4.72;;;18.50;99.90;;;;;;4938822;29;20027;-78
2023/06/15 03:50:33;;;;;;;11.15;4.68;;;18.50;99.90;;;;;;4954571;28;20027;-78
2023/06/15 03:52:59;;;;;;;9.25;4.97;;;18.60;99.90;;;;;;4954857;28;20126;-77
2023/06/15 03:55:25;;;;;;;10.13;4.68;;;18.50;99.90;;;;;;4954072;29;20122;-78
2023/06/15 03:57:51;;;;;;;7.22;3.97;;;18.50;99.90;;;;;;4938247;28;20046;-78
2023/06/15 04:00:18;;;;;;;7.70;4.13;;;18.50;99.90;;;;;;4951068;29;20023;-78
2023/06/15 04:02:46;;;;;;;11.82;4.53;;;18.50;99.90;;;;;;4937976;29;20033;-78
2023/06/15 04:05:13;;;;;;;9.52;4.10;;;18.60;99.90;;;;;;4932655;29;20031;-77
2023/06/15 04:07:40;;;;;;;8.18;4.70;;;18.60;99.90;;;;;;4942499;28;20044;-77
2023/06/15 04:10:08;;;;;;;6.55;3.88;;;18.70;99.90;;;;;;4953105;28;20126;-78
2023/06/15 04:12:34;;;;;;;7.20;3.90;;;18.70;99.90;;;;;;4938143;28;20031;-78
2023/06/15 04:15:00;;;;;;;6.68;3.88;;;18.80;99.90;;;;;;4937896;29;20031;-78
2023/06/15 04:17:26;;;;;;;10.82;4.05;;;18.80;99.90;;;;;;4953641;29;20490;-75
2023/06/15 04:19:52;;;;;;;7.80;4.63;;;18.80;99.90;;;;;;4955527;28;20035;-78
2023/06/15 04:22:17;;;;;;;6.47;4.30;;;18.80;99.90;;;;;;4952102;29;20130;-79
2023/06/15 04:24:43;;;;;;;6.05;3.85;;;18.80;99.90;;;;;;4942983;28;20031;-78
2023/06/15 04:27:13;;;;;;;8.43;3.85;;;18.80;99.90;;;;;;4949184;28;20483;-79
2023/06/15 04:29:45;;;;;;;12.30;4.88;;;18.80;99.90;;;;;;4953630;28;20031;-77
2023/06/15 04:32:13;;;;;;;7.57;4.60;;;18.80;99.90;;;;;;4954026;29;20143;-78
2023/06/15 04:34:39;;;;;;;7.38;3.47;;;18.80;99.90;;;;;;4936325;29;20402;-78
2023/06/15 04:37:06;;;;;;;8.35;3.65;;;18.70;99.90;;;;;;4944361;28;20035;-78
2023/06/15 04:39:34;;;;;;;7.40;4.38;;;18.70;99.90;;;;;;4937297;29;20039;-78
2023/06/15 04:42:03;;;;;;;7.10;3.80;;;18.80;99.90;;;;;;4937435;28;20125;-79
2023/06/15 04:44:30;;;;;;;8.95;4.32;;;18.80;99.90;;;;;;4937544;29;20446;-78
2023/06/15 04:46:56;;;;;;;8.48;4.07;;;18.90;99.90;;;;;;4937153;29;20154;-79
2023/06/15 04:49:22;;;;;;;6.85;4.30;;;18.90;99.90;;;;;;4921292;29;20510;-79
2023/06/15 04:51:50;;;;;;;9.43;3.95;;;19.00;99.90;;;;;;4953260;28;20117;-79
2023/06/15 04:54:15;;;;;;;13.38;4.63;;;19.00;99.90;;;;;;4937676;29;20031;-79
2023/06/15 04:56:41;;;;;;;7.60;3.70;;;19.10;99.90;;;;;;4954350;28;20368;-79
2023/06/15 04:59:08;;;;;;;11.23;4.07;;;19.20;99.90;;;;;;4947896;28;20122;-78
2023/06/15 05:01:34;;;;;;;7.13;4.15;;;19.20;99.90;;;;;;4952953;28;20026;-79
2023/06/15 05:04:00;;;;;;;8.70;3.90;;;19.00;99.90;;;;;;4936958;29;20035;-78
2023/06/15 05:06:26;;;;;;;6.40;3.55;;;19.10;99.90;;;;;;4940603;28;20163;-78
2023/06/15 05:08:52;;;;;;;8.43;4.35;;;19.10;99.90;;;;;;4936517;29;20446;-78
2023/06/15 05:11:18;;;;;;;5.78;3.58;;;19.10;99.90;;;;;;4936873;28;20047;-78
2023/06/15 05:13:45;;;;;;;7.13;3.90;;;19.20;99.90;;;;;;4936627;28;20386;-78
2023/06/15 05:16:10;;;;;;;9.35;3.72;;;19.30;99.90;;;;;;4936894;28;20120;-78
2023/06/15 05:18:38;;;;;;;8.68;4.25;;;19.40;99.90;;;;;;4953767;28;20031;-78
2023/06/15 05:21:05;;;;;;;4.32;3.28;;;19.40;99.90;;;;;;4936735;28;20023;-79
2023/06/15 05:23:35;;;;;;;9.52;4.65;;;19.50;99.90;;;;;;4936582;29;20538;-78
2023/06/15 05:26:01;;;;;;;7.25;3.75;;;19.40;99.90;;;;;;4936153;28;20032;-77
2023/06/15 05:28:27;;;;;;;8.20;4.28;;;19.40;99.90;;;;;;4953309;29;20019;-78
2023/06/15 05:30:53;;;;;;;8.38;4.15;;;19.50;99.90;;;;;;4952945;29;20103;-78
2023/06/15 05:33:20;;;;;;;10.35;4.53;;;19.50;99.90;;;;;;4936818;29;20041;-78
2023/06/15 05:35:46;;;;;;;14.10;4.07;;;19.30;99.90;;;;;;4935342;28;20090;-78
2023/06/15 05:38:11;;;;;;;8.43;4.32;;;19.50;99.90;;;;;;4936495;29;20085;-77
2023/06/15 05:40:40;;;;;;;7.82;4.35;;;19.50;99.90;;;;;;4935541;29;20043;-78
2023/06/15 05:43:06;;;;;;;10.20;5.22;;;19.50;99.90;;;;;;4952597;28;20038;-78
2023/06/15 05:45:32;;;;;;;8.48;4.78;;;19.50;99.90;;;;;;4951913;28;20403;-78
2023/06/15 05:48:02;;;;;;;9.90;4.45;;;19.60;99.90;;;;;;4937851;29;20030;-78
2023/06/15 05:50:31;;;;;;;9.95;5.47;;;19.60;99.90;;;;;;4952518;28;20032;-78
2023/06/15 05:52:57;;;;;;;11.00;5.00;;;19.70;99.90;;;;;;4943817;29;20020;-78
2023/06/15 05:55:23;;;;;;;9.77;4.97;;;19.60;99.90;;;;;;4952391;28;20027;-79
2023/06/15 05:57:49;;;;;;;7.85;4.85;;;19.50;99.90;;;;;;4936092;28;20046;-78
2023/06/15 06:00:15;;;;;;;7.57;4.22;;;19.50;99.90;;;;;;4953481;28;20031;-79
2023/06/15 06:02:42;;;;;;;10.40;5.20;;;19.60;99.90;;;;;;4953680;28;20115;-78
2023/06/15 06:05:15;;;;;;;10.40;4.75;;;19.70;99.90;;;;;;4936649;29;20023;-78
2023/06/15 06:07:44;;;;;;;12.23;4.78;;;19.70;99.90;;;;;;4935361;29;20501;-78
2023/06/15 06:10:10;;;;;;;10.05;5.00;;;19.70;99.90;;;;;;4939924;29;20035;-78
2023/06/15 06:12:36;;;;;;;8.30;4.80;;;19.70;99.90;;;;;;4956178;28;20031;-79
2023/06/15 06:15:02;;;;;;;11.90;4.90;;;19.70;99.90;;;;;;4939703;29;20058;-78
2023/06/15 06:17:28;;;;;;;7.95;3.92;;;19.80;99.90;;;;;;4949244;28;20454;-78
2023/06/15 06:19:55;;;;;;;7.95;4.55;;;19.90;99.90;;;;;;4940063;29;20035;-78
2023/06/15 06:22:22;;;;;;;9.55;5.50;;;19.90;99.90;;;;;;4940202;29;20056;-79
2023/06/15 06:24:49;;;;;;;10.48;4.68;;;19.90;99.90;;;;;;4955637;28;20051;-78
2023/06/15 06:27:14;;;;;;;10.65;5.00;;;19.90;99.90;;;;;;4957435;29;20509;-78
2023/06/15 06:29:41;;;;;;;15.18;5.75;;;19.90;99.90;;;;;;4956844;28;20058;-78
2023/06/15 06:32:07;;;;;;;7.38;4.47;;;19.70;99.90;;;;;;4957259;29;20023;-77
2023/06/15 06:34:35;;;;;;;17.25;5.40;;;19.70;99.90;;;;;;4956528;28;20091;-78
2023/06/15 06:37:04;;;;;;;14.05;5.25;;;19.70;99.90;;;;;;4956985;28;20019;-78
2023/06/15 06:39:30;;;;;;;14.73;5.32;;;19.80;99.90;;;;;;4956773;28;20487;-78
2023/06/15 06:41:57;;;;;;;10.13;4.60;;;19.70;99.90;;;;;;4957014;28;20356;-78
2023/06/15 06:44:31;;;;;;;9.55;4.65;;;19.80;99.90;;;;;;4940171;28;20394;-78
2023/06/15 06:46:57;;;;;;;10.23;4.90;;;19.80;99.90;;;;;;4957247;28;20031;-78
2023/06/15 06:49:23;;;;;;;9.65;4.50;;;19.90;99.90;;;;;;4956829;28;20027;-78
2023/06/15 06:51:49;;;;;;;6.68;4.20;;;19.90;99.90;;;;;;4956451;28;20102;-78
2023/06/15 06:54:14;;;;;;;7.43;4.72;;;19.80;99.90;;;;;;4956299;28;20390;-78
2023/06/15 06:56:40;;;;;;;9.40;5.13;;;19.80;99.90;;;;;;4956811;28;20094;-78
2023/06/15 06:59:06;;;;;;;8.15;5.13;;;19.90;99.90;;;;;;4956220;28;20459;-78
2023/06/15 07:01:32;;;;;;;9.45;5.13;;;19.80;99.90;;;;;;4956544;29;20562;-78
2023/06/15 07:03:57;;;;;;;7.40;4.65;;;19.90;99.90;;;;;;4956227;28;20550;-78
2023/06/15 07:06:23;;;;;;;11.30;5.07;;;19.90;99.90;;;;;;4956362;28;20062;-78
2023/06/15 07:08:50;;;;;;;10.65;4.85;;;19.80;99.90;;;;;;4955567;28;20080;-78
2023/06/15 07:11:16;;;;;;;8.48;5.55;;;19.90;99.90;;;;;;4955891;28;20102;-78
2023/06/15 07:13:41;;;;;;;11.68;5.40;;;19.70;99.90;;;;;;4956076;28;20055;-78
2023/06/15 07:16:07;;;;;;;10.00;5.25;;;19.80;99.90;;;;;;4956354;28;20383;-78
2023/06/15 07:18:33;;;;;;;9.05;5.55;;;19.80;99.90;;;;;;4955652;28;20074;-78
2023/06/15 07:20:59;;;;;;;11.73;5.68;;;19.90;99.90;;;;;;4954696;28;20502;-78
2023/06/15 07:23:25;;;;;;;12.02;5.35;;;20.00;99.90;;;;;;4956133;28;20471;-78
2023/06/15 07:25:52;;;;;;;8.40;4.95;;;20.10;99.90;;;;;;4956065;28;20023;-79
2023/06/15 07:28:19;;;;;;;10.85;5.07;;;20.00;99.90;;;;;;4956011;28;20070;-78
2023/06/15 07:30:49;;;;;;;10.82;5.57;;;20.20;99.90;;;;;;4938497;29;20858;-78
2023/06/15 07:33:15;;;;;;;9.05;4.82;;;20.30;99.90;;;;;;4955853;28;20031;-78
2023/06/15 07:35:41;;;;;;;10.02;5.22;;;20.30;99.90;;;;;;4955987;28;20054;-78
2023/06/15 07:38:07;;;;;;;10.63;5.45;;;20.30;99.90;;;;;;4955898;28;20455;-78
2023/06/15 07:40:33;;;;;;;13.25;5.95;;;20.40;99.90;;;;;;4955091;28;20031;-78
2023/06/15 07:42:59;;;;;;;9.93;5.20;;;20.40;99.90;;;;;;4955621;28;20616;-78
2023/06/15 07:45:25;;;;;;;11.00;5.50;;;20.40;99.90;;;;;;4955551;28;20114;-78
2023/06/15 07:47:51;;;;;;;8.40;4.97;;;20.40;99.90;;;;;;4954978;28;20117;-78
2023/06/15 07:50:17;;;;;;;9.25;5.05;;;20.40;99.90;;;;;;4955830;28;20475;-79
2023/06/15 07:52:43;;;;;;;9.50;4.55;;;20.40;99.90;;;;;;4955479;28;20016;-78
2023/06/15 07:55:09;;;;;;;9.35;4.68;;;20.30;99.90;;;;;;4955697;28;20031;-79
2023/06/15 07:57:35;;;;;;;12.30;5.78;;;20.50;99.90;;;;;;4955244;28;20453;-78
2023/06/15 08:00:04;;;;;;;11.00;5.53;;;20.50;99.90;;;;;;4937834;28;20398;-79
2023/06/15 08:02:30;;;;;;;8.50;4.78;;;20.40;99.90;;;;;;4955130;29;20039;-78
2023/06/15 08:04:56;;;;;;;10.57;5.05;;;20.50;99.90;;;;;;4955268;28;20037;-78
2023/06/15 08:07:22;;;;;;;14.10;5.32;;;20.60;99.90;;;;;;4955221;28;20110;-78
2023/06/15 08:09:48;;;;;;;9.88;4.93;;;20.60;99.90;;;;;;4955186;28;20106;-78
2023/06/15 08:12:14;;;;;;;10.20;5.38;;;20.80;99.90;;;;;;4955370;29;20031;-78
2023/06/15 08:14:40;;;;;;;12.30;5.80;;;20.70;99.90;;;;;;4955082;28;21147;-78
2023/06/15 08:17:06;;;;;;;12.52;5.30;;;20.70;99.90;;;;;;4955537;28;20031;-78
2023/06/15 08:19:32;;;;;;;11.55;6.05;;;20.60;99.90;;;;;;4954862;29;20093;-79
2023/06/15 08:21:57;;;;;;;18.55;6.65;;;20.60;99.90;;;;;;4955376;28;20015;-78
2023/06/15 08:24:23;;;;;;;11.93;5.38;;;20.80;99.90;;;;;;4955077;28;20027;-78
2023/06/15 08:26:49;;;;;;;11.40;6.00;;;20.80;99.90;;;;;;4955253;28;20041;-78
2023/06/15 08:29:15;;;;;;;10.38;5.60;;;20.70;99.90;;;;;;4955058;28;20031;-79
2023/06/15 08:31:41;;;;;;;9.20;5.30;;;20.70;99.90;;;;;;4954838;28;20023;-78
2023/06/15 08:34:08;;;;;;;11.60;5.70;;;20.70;99.90;;;;;;4937779;28;21129;-78
2023/06/15 08:36:34;;;;;;;11.18;5.65;;;20.80;99.90;;;;;;4954851;28;20514;-78
2023/06/15 08:39:00;;;;;;;10.52;5.38;;;20.70;99.90;;;;;;4937400;28;20455;-78
2023/06/15 08:41:30;;;;;;;12.48;6.93;;;20.70;99.90;;;;;;4947878;28;20055;-78
2023/06/15 08:43:56;;;;;;;12.52;6.25;;;20.70;99.90;;;;;;4952560;28;20027;-78
2023/06/15 08:46:24;;;;;;;13.80;6.38;;;20.80;99.90;;;;;;4954984;28;20027;-78
2023/06/15 08:48:52;;;;;;;18.65;7.85;;;20.90;99.90;;;;;;4954571;28;20041;-78
2023/06/15 08:51:21;;;;;;;22.30;7.82;;;20.90;99.90;;;;;;4954590;28;20498;-79
2023/06/15 08:53:47;;;;;;;21.65;8.55;;;21.00;99.90;;;;;;4954121;28;20019;-78
2023/06/15 08:56:13;;;;;;;23.60;8.93;;;20.50;99.90;;;;;;4954647;28;20415;-78
2023/06/15 08:58:41;;;;;;;21.42;9.65;;;20.80;99.90;;;;;;4953818;28;20031;-77
2023/06/15 09:01:08;;;;;;;17.55;6.22;;;20.90;99.90;;;;;;4954771;28;20027;-78
2023/06/15 09:03:34;;;;;;;12.80;5.60;;;20.90;99.90;;;;;;4953841;28;20063;-78
2023/06/15 09:06:00;;;;;;;12.50;6.00;;;20.70;99.90;;;;;;4954569;28;20467;-78
2023/06/15 09:08:26;;;;;;;8.43;5.47;;;20.80;99.90;;;;;;4953869;28;20049;-78
2023/06/15 09:11:06;;;;;;;9.23;5.28;;;20.70;99.90;;;;;;4953981;28;20453;-78
2023/06/15 09:13:34;;;;;;;11.40;6.25;;;20.70;99.90;;;;;;4953828;28;20082;-78
2023/06/15 09:16:01;;;;;;;9.63;5.63;;;20.70;99.90;;;;;;4954187;28;20572;-78
2023/06/15 09:18:28;;;;;;;10.43;5.78;;;20.70;99.90;;;;;;4954155;28;20521;-78
2023/06/15 09:21:00;;;;;;;12.35;5.32;;;20.80;99.90;;;;;;4953740;28;20023;-79
2023/06/15 09:23:26;;;;;;;8.93;5.32;;;21.00;99.90;;;;;;4953869;28;20046;-78
2023/06/15 09:25:56;;;;;;;11.10;5.97;;;21.10;99.90;;;;;;4953938;28;20019;-79
2023/06/15 09:28:28;;;;;;;9.32;5.82;;;21.00;99.90;;;;;;4954128;28;20030;-78
2023/06/15 09:30:55;;;;;;;11.85;6.43;;;21.10;99.90;;;;;;4953942;28;20023;-79
2023/06/15 09:33:22;;;;;;;10.43;6.53;;;21.10;99.90;;;;;;4953684;28;20032;-79
2023/06/15 09:35:59;;;;;;;16.70;6.88;;;21.10;99.90;;;;;;4953491;28;20471;-79
2023/06/15 09:38:26;;;;;;;13.38;6.57;;;21.10;99.90;;;;;;4953611;28;20062;-79
2023/06/15 09:40:53;;;;;;;11.43;5.65;;;21.00;99.90;;;;;;4953912;28;20491;-79
2023/06/15 09:43:20;;;;;;;13.43;6.63;;;20.90;99.90;;;;;;4952453;28;20023;-79
2023/06/15 09:45:54;;;;;;;11.57;6.65;;;21.00;99.90;;;;;;4953494;28;20066;-80
2023/06/15 09:48:21;;;;;;;10.40;6.75;;;20.60;99.90;;;;;;4954023;28;20543;-79
2023/06/15 09:50:53;;;;;;;15.63;7.05;;;20.60;99.90;;;;;;4952826;28;20043;-78
2023/06/15 09:53:19;;;;;;;11.88;6.30;;;20.40;99.90;;;;;;4953832;28;20114;-78
2023/06/15 09:55:48;;;;;;;14.20;8.32;;;20.10;99.90;;;;;;4953083;28;20098;-79
2023/06/15 09:58:14;;;;;;;13.70;7.20;;;20.10;99.90;;;;;;4952890;28;20035;-78
2023/06/15 10:00:42;;;;;;;13.10;7.68;;;20.00;99.90;;;;;;4953139;28;20024;-79
2023/06/15 10:03:10;;;;;;;14.65;7.57;;;20.30;99.90;;;;;;4953601;28;20059;-78
2023/06/15 10:05:44;;;;;;;14.43;7.20;;;20.40;99.90;;;;;;4953796;28;20371;-78
2023/06/15 10:08:13;;;;;;;12.52;7.22;;;20.50;99.90;;;;;;4953224;28;20100;-79
2023/06/15 10:10:44;;;;;;;14.93;7.28;;;20.50;99.90;;;;;;4953297;28;20066;-78
2023/06/15 10:13:20;;;;;;;15.95;7.50;;;20.50;99.90;;;;;;4953318;28;20027;-78
2023/06/15 10:15:52;;;;;;;12.82;6.88;;;20.60;99.90;;;;;;4945585;28;20403;-78
2023/06/15 10:18:22;;;;;;;9.80;5.53;;;20.90;99.90;;;;;;4953533;28;20364;-79
2023/06/15 10:20:53;;;;;;;12.55;7.00;;;21.00;99.90;;;;;;4953447;28;20387;-79
2023/06/15 10:23:27;;;;;;;14.15;7.18;;;20.90;99.90;;;;;;4941450;29;20031;-78
2023/06/15 10:25:55;;;;;;;13.40;6.57;;;20.90;99.90;;;;;;4953046;28;20078;-79
2023/06/15 10:28:30;;;;;;;11.30;6.80;;;21.00;99.90;;;;;;4936183;29;20023;-79
2023/06/15 10:31:09;;;;;;;12.18;6.68;;;21.00;99.90;;;;;;4953113;28;20427;-79
2023/06/15 10:33:48;;;;;;;12.68;7.35;;;21.00;99.90;;;;;;4953175;28;20019;-79
2023/06/15 10:36:24;;;;;;;13.07;7.25;;;21.00;99.90;;;;;;4949081;28;20101;-78
2023/06/15 10:39:03;;;;;;;13.15;6.60;;;21.10;99.90;;;;;;4953206;28;20475;-78
2023/06/15 10:41:30;;;;;;;11.98;7.28;;;21.20;99.90;;;;;;4952931;28;20086;-79
2023/06/15 10:44:00;;;;;;;12.05;6.80;;;21.30;99.90;;;;;;4952925;28;20058;-79
2023/06/15 10:46:32;;;;;;;13.93;7.07;;;21.50;99.90;;;;;;4952539;28;20479;-78
2023/06/15 10:49:05;;;;;;;11.43;7.05;;;21.60;99.90;;;;;;4944917;29;20031;-78
2023/06/15 10:51:49;;;;;;;13.35;8.30;;;21.50;99.90;;;;;;4953028;28;20019;-79
2023/06/15 10:54:25;;;;;;;16.23;8.27;;;21.80;99.90;;;;;;4952694;28;20038;-79
2023/06/15 10:56:55;;;;;;;10.77;7.45;;;21.90;99.90;;;;;;4956410;28;20475;-80
2023/06/15 10:59:51;;;;;;;14.38;7.53;;;21.90;99.90;;;;;;4956156;28;20035;-79
2023/06/15 11:02:30;;;;;;;12.05;7.32;;;21.70;99.90;;;;;;4957306;28;20035;-79
2023/06/15 11:05:14;;;;;;;12.77;6.80;;;21.60;99.90;;;;;;4956463;28;20534;-80
2023/06/15 11:07:47;;;;;;;11.00;7.63;;;21.70;99.90;;;;;;4946376;28;20043;-80
2023/06/15 11:10:27;;;;;;;13.07;6.90;;;21.90;99.90;;;;;;4956298;28;20031;-79
2023/06/15 11:13:02;;;;;;;15.15;7.18;;;21.80;99.90;;;;;;4956360;28;20034;-79
2023/06/15 11:15:33;;;;;;;12.07;7.65;;;21.70;99.90;;;;;;4956361;28;20467;-77
2023/06/15 11:18:03;;;;;;;12.20;6.28;;;21.80;99.90;;;;;;4955990;28;20478;-77
2023/06/15 11:20:44;;;;;;;11.35;6.82;;;21.80;99.90;;;;;;4938952;29;20031;-78
2023/06/15 11:23:16;;;;;;;11.50;7.05;;;22.00;99.90;;;;;;4955249;28;20031;-78
2023/06/15 11:25:46;;;;;;;14.98;7.15;;;21.90;99.90;;;;;;4948131;28;20062;-79
2023/06/15 11:28:21;;;;;;;10.40;6.65;;;22.00;99.90;;;;;;4943593;29;20044;-78
2023/06/15 11:30:48;;;;;;;12.05;6.85;;;22.10;99.90;;;;;;4939327;29;20023;-78
2023/06/15 11:33:24;;;;;;;15.13;6.85;;;22.10;99.90;;;;;;4941770;28;20027;-77
2023/06/15 11:35:50;;;;;;;9.10;5.68;;;22.20;99.90;;;;;;4955713;28;20041;-77
2023/06/15 11:38:15;;;;;;;12.88;6.15;;;22.00;99.90;;;;;;4950618;28;20023;-77
2023/06/15 11:40:46;;;;;;;12.38;7.55;;;21.80;99.90;;;;;;4942642;29;20027;-78
2023/06/15 11:43:13;;;;;;;12.80;6.65;;;21.90;99.90;;;;;;4946599;29;20032;-80
2023/06/15 11:45:45;;;;;;;12.93;6.40;;;21.80;99.90;;;;;;4939216;29;20027;-77
2023/06/15 11:48:14;;;;;;;10.93;5.60;;;21.60;99.90;;;;;;4947496;29;20371;-77
2023/06/15 11:50:42;;;;;;;10.30;5.75;;;21.60;99.90;;;;;;4935179;29;20028;-77
2023/06/15 11:53:07;;;;;;;9.38;4.72;;;21.50;99.90;;;;;;4941626;29;20718;-77
2023/06/15 11:55:42;;;;;;;9.07;5.03;;;21.50;99.90;;;;;;4934391;29;20380;-77
2023/06/15 11:58:08;;;;;;;9.02;4.80;;;21.40;99.90;;;;;;4948507;29;20426;-78
2023/06/15 12:00:34;;;;;;;9.00;4.72;;;21.30;99.90;;;;;;4941281;28;20030;-78
2023/06/15 12:03:00;;;;;;;9.20;5.20;;;21.40;99.90;;;;;;4934577;29;20036;-77
2023/06/15 12:05:26;;;;;;;12.13;4.95;;;21.10;99.90;;;;;;4937849;28;20019;-78
2023/06/15 12:07:52;;;;;;;8.02;4.95;;;21.20;99.90;;;;;;4944078;29;20058;-78
2023/06/15 12:10:18;;;;;;;8.50;4.50;;;21.20;99.90;;;;;;4939407;29;20043;-78
2023/06/15 12:12:48;;;;;;;9.18;4.97;;;21.20;99.90;;;;;;4938023;29;20114;-78
2023/06/15 12:15:17;;;;;;;10.10;5.40;;;21.20;99.90;;;;;;4955273;28;20042;-79
2023/06/15 12:17:43;;;;;;;11.63;5.07;;;21.10;99.90;;;;;;4955044;29;20102;-79
2023/06/15 12:20:09;;;;;;;8.95;4.10;;;21.20;99.90;;;;;;4955041;28;20122;-82
2023/06/15 12:22:41;;;;;;;10.20;5.07;;;21.30;99.90;;;;;;4955366;28;20134;-80
2023/06/15 12:25:07;;;;;;;10.85;5.13;;;21.40;99.90;;;;;;4942622;28;20035;-79
2023/06/15 12:27:40;;;;;;;8.77;5.57;;;21.40;99.90;;;;;;4955113;28;20031;-79
2023/06/15 12:30:11;;;;;;;11.05;5.90;;;21.40;99.90;;;;;;4954803;28;20131;-79
2023/06/15 12:32:48;;;;;;;10.70;5.28;;;21.40;99.90;;;;;;4954750;29;20039;-79
2023/06/15 12:35:32;;;;;;;8.65;5.22;;;21.40;99.90;;;;;;4954980;28;20023;-80
2023/06/15 12:37:57;;;;;;;10.70;6.40;;;21.30;99.90;;;;;;4954444;28;20038;-82
2023/06/15 12:40:23;;;;;;;12.43;5.72;;;21.10;99.90;;;;;;4954921;28;20118;-81
2023/06/15 12:43:05;;;;;;;8.80;5.78;;;21.20;99.90;;;;;;4954552;28;20028;-77
2023/06/15 12:45:33;;;;;;;11.57;7.00;;;21.10;99.90;;;;;;4954410;28;20066;-77